Terminal Aerodrome Forecast
Issued by NWS

Current Version | Previous Version | Graphics & Text | Print | Product List | Glossary On
Versions: 1 2 3 4 5 6 7 8 9 10 11 12 13 14 15 16 17 18 19 20 21 22 23 24
001
FTUS41 KILN 232002 AAA
TAFLCK
TAF AMD
KLCK 232002Z 2320/2418 22006KT P6SM RA SCT022 BKN050 OVC080
     FM240000 20006KT 4SM SHRA OVC029
     FM240100 28005KT P6SM VCSH OVC030
     FM240600 32006KT P6SM SCT250
     FM241400 29012KT P6SM SCT040=

USA.gov is the U.S. government's official web portal to all federal, state and local government web resources and services.